Wilmot, AR (71676)

6:42 PM CDT on July 24, 2014 (GMT -0500)
Beekman (KLABASTR4) Elev 134 ft | 32.97 °N, 91.91 °W | Change Station

Current weather conditions updated 55 seconds ago

Partly Cloudy
Partly Cloudy
85.8 °F
Feels Like 87 °F
N
0.0
Wind Variable Wind from WNW
Gusts 0.0 mph

Tomorrow is forecast to be Cooler than today.

Today
High -- | Low -- °F
--% Chance of Precip.
Yesterday
High -- | Low -- °F
Precip. -- in
6:14 AM 8:11 PM
Waning Crescent, 4% visible
Pressure 29.96 in
Visibility 10.0 miles
Clouds Clear
Heat Index 87 °F
Dew Point 63 °F
Humidity 46%
Rainfall 0.00 in
Snow Depth Not available.
UV 1 out of 12
Pollen 4.00 out of 12
Air Quality Not available.
Flu Activity Not available.
METAR KBQP 242335Z AUTO 04003KT 10SM CLR 31/22 A2996 RMK AO2 T03080217

More Conditions Fewer Conditions

Pressure 29.96 in
Visibility 10.0 miles
Clouds Clear
Heat Index 87 °F
Dew Point 63 °F
Humidity 46%
Rainfall 0.00 in
Snow Depth Not available.
UV 1 out of 12
Pollen 4.00 out of 12
Air Quality Not available.
Flu Activity Not available.
METAR KBQP 242335Z AUTO 04003KT 10SM CLR 31/22 A2996 RMK AO2 T03080217

More Conditions Fewer Conditions

10-Day Weather Forecast

Almanac

Astronomy

Jul. 24, 2014 Rise Set
Actual Time 6:14 AM CDT 8:11 PM CDT
Civil Twilight 5:46 AM CDT 8:38 PM CDT
Nautical Twilight 5:13 AM CDT 9:11 PM CDT
Astronomical Twilight 4:37 AM CDT 9:47 PM CDT
Moon 4:21 AM CDT 6:27 PM CDT
Length of Visible Light 14h 51m
Length of Day
13h 56m
Tomorrow will be 1m 20s shorter.
Waning Crescent, 4% of the Moon is Illuminated
Today
Waning Crescent
Jul 26
New
Aug 3
First Quarter
Aug 10
Full
Aug 17
Last Quarter

Today's Extremes

State Highs State Lows

Community

WunderPhotos

Upload Photos

1,737,162 photos uploaded!

Nearby

Snow Depth

Station Depth Elevation
No new snow has been reported.

Earthquake Activity

City Distance Mag. Time & Date
No recent earthquake activity has been reported nearby.
Minimum magnitude displayed is 2.5.

Coastal Water Temperatures

Place Temperature
No Stations Reporting

Nearby Weather Stations

Station Location Temp. Heat Index Dew Point Humidity Wind Precip. Elev Updated Type
Beekman, Bastrop, LA 85.8 °F 87 °F 63 °F 46% WNW  at  0.0 mph 0.00 in / hr 134 ft 6:41 PM CDT Normal

Show More Stations Show Fewer Stations